createdAt,value
2018-07-24T00:01:37.615Z,76.12
2018-07-24T00:04:05.770Z,76.36
2018-07-24T00:06:33.828Z,76.79
2018-07-24T00:09:01.960Z,76.88
2018-07-24T00:11:30.089Z,77.07
2018-07-24T00:13:58.242Z,76.21
2018-07-24T00:16:26.367Z,76.42
2018-07-24T00:18:54.539Z,76.74
2018-07-24T00:21:22.678Z,76.47
2018-07-24T00:23:50.807Z,76.94
2018-07-24T00:26:18.920Z,76.86
2018-07-24T00:28:47.000Z,76.95
2018-07-24T00:31:15.093Z,76.86
2018-07-24T00:33:43.255Z,77.06
2018-07-24T00:36:11.367Z,77.08
2018-07-24T00:38:39.500Z,76.68
2018-07-24T00:41:07.555Z,77.80
2018-07-24T00:43:35.655Z,78.16
2018-07-24T00:46:03.754Z,78.50
2018-07-24T00:48:31.892Z,78.48
2018-07-24T00:51:00.012Z,79.00
2018-07-24T00:53:28.119Z,78.89
2018-07-24T00:55:56.255Z,78.93
2018-07-24T00:58:24.340Z,78.92
2018-07-24T01:00:52.445Z,78.68
2018-07-24T01:03:20.559Z,78.72
2018-07-24T01:05:48.663Z,79.10
2018-07-24T01:08:16.803Z,78.37
2018-07-24T01:10:44.884Z,78.40
2018-07-24T01:13:12.983Z,78.34
2018-07-24T01:15:41.124Z,78.11
2018-07-24T01:18:09.280Z,78.55
2018-07-24T01:20:37.404Z,78.87
2018-07-24T01:23:05.554Z,78.80
2018-07-24T01:25:33.620Z,78.95
2018-07-24T01:28:01.747Z,78.96
2018-07-24T01:30:29.902Z,78.75
2018-07-24T01:32:58.030Z,78.62
2018-07-24T01:35:26.127Z,78.57
2018-07-24T01:37:54.273Z,78.43
2018-07-24T01:40:22.379Z,79.24
2018-07-24T01:42:50.506Z,79.16
2018-07-24T01:45:18.622Z,79.22
2018-07-24T01:47:46.896Z,79.50
2018-07-24T01:50:15.104Z,79.61
2018-07-24T01:52:43.335Z,79.37
2018-07-24T01:55:11.455Z,80.29
2018-07-24T01:57:39.548Z,80.30
2018-07-24T02:00:08.064Z,80.17
2018-07-24T02:02:36.183Z,80.15
2018-07-24T02:05:04.297Z,80.87
2018-07-24T02:07:32.389Z,80.85
2018-07-24T02:10:00.520Z,80.45
2018-07-24T02:12:28.626Z,80.98
2018-07-24T02:14:56.801Z,80.94
2018-07-24T02:17:24.869Z,80.89
2018-07-24T02:19:53.000Z,80.98
2018-07-24T02:22:21.154Z,81.44
2018-07-24T02:24:49.298Z,81.52
2018-07-24T02:27:17.409Z,81.79
2018-07-24T02:29:45.531Z,81.93
2018-07-24T02:32:13.675Z,82.10
2018-07-24T02:34:41.907Z,82.59
2018-07-24T02:37:10.361Z,81.94
2018-07-24T02:39:38.493Z,82.19
2018-07-24T02:42:06.647Z,82.01
2018-07-24T02:44:34.778Z,82.04
2018-07-24T02:47:02.905Z,81.99
2018-07-24T02:49:30.981Z,81.61
2018-07-24T02:51:59.089Z,81.75
2018-07-24T02:54:27.209Z,82.01
2018-07-24T02:56:55.313Z,81.64
2018-07-24T02:59:23.472Z,81.60
2018-07-24T03:01:51.618Z,81.50
2018-07-24T03:04:19.766Z,81.30
2018-07-24T03:06:47.893Z,81.84
2018-07-24T03:09:16.036Z,82.14
2018-07-24T03:11:44.176Z,82.47
2018-07-24T03:14:12.328Z,83.40
2018-07-24T03:16:40.494Z,83.71
2018-07-24T03:19:08.672Z,83.42
2018-07-24T03:21:36.837Z,83.17
2018-07-24T03:24:05.049Z,83.00
2018-07-24T03:26:33.194Z,82.83
2018-07-24T03:29:01.328Z,83.06
2018-07-24T03:31:29.439Z,83.01
2018-07-24T03:33:57.581Z,82.78
2018-07-24T03:36:25.708Z,82.32
2018-07-24T03:38:53.886Z,82.06
2018-07-24T03:41:21.990Z,82.27
2018-07-24T03:43:50.111Z,82.34
2018-07-24T03:46:18.445Z,82.23
2018-07-24T03:48:46.508Z,82.58
2018-07-24T03:51:14.612Z,82.48
2018-07-24T03:53:42.820Z,82.42
2018-07-24T03:56:10.945Z,82.87
2018-07-24T03:58:39.040Z,82.95
2018-07-24T04:01:07.132Z,82.93
2018-07-24T04:03:35.201Z,82.72
2018-07-24T04:06:03.287Z,82.56
2018-07-24T04:08:31.374Z,82.20
2018-07-24T04:10:59.511Z,82.50
2018-07-24T04:13:27.667Z,82.03
2018-07-24T04:15:55.849Z,81.81
2018-07-24T04:18:23.974Z,81.43
2018-07-24T04:20:52.149Z,80.69
2018-07-24T04:23:20.279Z,80.55
2018-07-24T04:25:48.437Z,80.38
2018-07-24T04:28:16.578Z,80.70
2018-07-24T04:30:44.748Z,81.11
2018-07-24T04:33:12.885Z,80.81
2018-07-24T04:35:41.009Z,80.87
2018-07-24T04:38:09.099Z,80.66
2018-07-24T04:40:37.196Z,80.23
2018-07-24T04:43:05.328Z,79.60
2018-07-24T04:45:33.448Z,78.80
2018-07-24T04:48:01.963Z,78.84
2018-07-24T04:50:30.050Z,78.54
2018-07-24T04:52:58.170Z,77.51
2018-07-24T04:55:26.306Z,74.62
2018-07-24T04:57:54.424Z,68.22
2018-07-24T05:00:22.627Z,62.26
2018-07-24T05:02:50.734Z,57.56
2018-07-24T05:05:18.864Z,52.88
2018-07-24T05:07:47.030Z,48.07
2018-07-24T05:10:15.767Z,46.40
2018-07-24T05:12:43.897Z,46.30
2018-07-24T05:15:12.122Z,47.22
2018-07-24T05:17:40.288Z,44.75
2018-07-24T05:20:08.452Z,43.36
2018-07-24T05:22:36.555Z,40.31
2018-07-24T05:25:04.702Z,42.51
2018-07-24T05:27:32.835Z,42.56
2018-07-24T05:30:01.024Z,41.66
2018-07-24T05:32:29.170Z,40.52
2018-07-24T05:34:57.336Z,39.45
2018-07-24T05:37:25.459Z,35.74
2018-07-24T05:39:53.605Z,34.55
2018-07-24T05:42:21.783Z,35.11
2018-07-24T05:44:49.975Z,36.15
2018-07-24T05:47:18.131Z,37.23
2018-07-24T05:49:46.247Z,36.48
2018-07-24T05:52:14.425Z,34.63
2018-07-24T05:54:42.574Z,35.68
2018-07-24T05:57:10.739Z,35.62
2018-07-24T05:59:38.864Z,34.68
2018-07-24T06:02:07.008Z,35.88
2018-07-24T06:04:35.181Z,34.42
2018-07-24T06:07:03.317Z,32.34
2018-07-24T06:09:31.628Z,32.30
2018-07-24T06:11:59.775Z,32.16
2018-07-24T06:14:27.959Z,29.66
2018-07-24T06:16:56.038Z,27.78
2018-07-24T06:19:24.192Z,29.93
2018-07-24T06:21:52.363Z,28.38
2018-07-24T06:24:20.516Z,29.53
2018-07-24T06:26:48.893Z,30.85
2018-07-24T06:29:17.114Z,32.04
2018-07-24T06:31:45.223Z,33.08
2018-07-24T06:34:13.377Z,32.78
2018-07-24T06:36:41.529Z,32.34
2018-07-24T06:39:11.539Z,33.36
2018-07-24T06:41:40.108Z,31.96
2018-07-24T06:44:08.818Z,30.39
2018-07-24T06:46:36.953Z,33.31
2018-07-24T06:49:05.078Z,31.21
2018-07-24T06:51:33.271Z,29.82
2018-07-24T06:54:01.392Z,29.69
2018-07-24T06:56:30.177Z,31.13
2018-07-24T06:58:58.337Z,30.41
2018-07-24T07:01:26.529Z,30.66
2018-07-24T07:03:54.723Z,30.77
2018-07-24T07:06:22.953Z,28.99
2018-07-24T07:08:51.936Z,27.77
2018-07-24T07:11:20.092Z,29.23
2018-07-24T07:13:48.216Z,27.76
2018-07-24T07:16:16.391Z,30.41
2018-07-24T07:18:44.525Z,29.31
2018-07-24T07:21:12.669Z,31.01
2018-07-24T07:23:40.842Z,30.38
2018-07-24T07:26:09.078Z,31.56
2018-07-24T07:28:37.127Z,30.99
2018-07-24T07:31:05.292Z,31.25
2018-07-24T07:33:33.438Z,29.86
2018-07-24T07:36:01.605Z,30.84
2018-07-24T07:38:29.720Z,30.54
2018-07-24T07:40:57.831Z,31.34
2018-07-24T07:43:25.969Z,30.57
2018-07-24T07:45:54.104Z,30.11
2018-07-24T07:48:22.192Z,29.47
2018-07-24T07:50:50.376Z,29.44
2018-07-24T07:53:18.555Z,31.31
2018-07-24T07:55:46.679Z,31.07
2018-07-24T07:58:14.798Z,30.62
2018-07-24T08:00:42.976Z,32.34
2018-07-24T08:03:11.100Z,30.64
2018-07-24T08:05:39.234Z,30.86
2018-07-24T08:08:07.358Z,30.84
2018-07-24T08:10:35.472Z,32.47
2018-07-24T08:13:03.608Z,31.31
2018-07-24T08:15:31.717Z,31.02
2018-07-24T08:17:59.869Z,31.62
2018-07-24T08:20:28.058Z,31.45
2018-07-24T08:22:56.207Z,30.95
2018-07-24T08:25:24.364Z,29.75
2018-07-24T08:27:52.539Z,29.39
2018-07-24T08:30:20.594Z,30.64
2018-07-24T08:32:48.736Z,29.50
2018-07-24T08:35:16.901Z,32.95
2018-07-24T08:37:45.038Z,33.58
2018-07-24T08:40:13.207Z,32.34
2018-07-24T08:42:41.369Z,32.63
2018-07-24T08:45:09.487Z,31.54
2018-07-24T08:47:37.659Z,30.99
2018-07-24T08:50:05.824Z,32.95
2018-07-24T08:52:34.107Z,35.41
2018-07-24T08:55:02.390Z,37.70
2018-07-24T08:57:30.274Z,35.62
2018-07-24T08:59:58.364Z,34.68
2018-07-24T09:02:26.487Z,32.95
2018-07-24T09:04:54.608Z,33.11
2018-07-24T09:07:22.690Z,33.30
2018-07-24T09:09:50.812Z,33.28
2018-07-24T09:12:18.920Z,33.13
2018-07-24T09:14:47.184Z,34.47
2018-07-24T09:17:15.358Z,34.13
2018-07-24T09:19:43.486Z,34.64
2018-07-24T09:22:11.603Z,33.46
2018-07-24T09:24:39.745Z,34.58
2018-07-24T09:27:08.041Z,35.55
2018-07-24T09:29:36.089Z,35.90
2018-07-24T09:32:04.216Z,34.96
2018-07-24T09:34:32.335Z,34.26
2018-07-24T09:37:00.484Z,33.37
2018-07-24T09:39:28.644Z,35.39
2018-07-24T09:41:56.783Z,35.26
2018-07-24T09:44:24.877Z,33.84
2018-07-24T09:46:53.052Z,36.43
2018-07-24T09:49:21.220Z,37.71
2018-07-24T09:51:49.356Z,37.83
2018-07-24T09:54:17.499Z,38.87
2018-07-24T09:56:45.640Z,38.01
2018-07-24T09:59:13.832Z,37.60
2018-07-24T10:01:41.880Z,36.75
2018-07-24T10:04:10.073Z,36.12
2018-07-24T10:06:38.215Z,36.11
2018-07-24T10:09:08.789Z,37.14
2018-07-24T10:11:36.885Z,36.48
2018-07-24T10:14:05.052Z,37.05
2018-07-24T10:16:33.231Z,36.13
2018-07-24T10:19:01.460Z,36.36
2018-07-24T10:21:29.616Z,36.98
2018-07-24T10:23:57.769Z,36.86
2018-07-24T10:26:25.911Z,37.19
2018-07-24T10:28:54.024Z,36.62
2018-07-24T10:31:22.180Z,38.76
2018-07-24T10:33:50.336Z,38.82
2018-07-24T10:36:18.466Z,37.72
2018-07-24T10:38:46.568Z,37.50
2018-07-24T10:41:14.705Z,38.46
2018-07-24T10:43:42.862Z,37.36
2018-07-24T10:46:10.992Z,36.34
2018-07-24T10:48:39.104Z,36.80
2018-07-24T10:51:07.221Z,36.79
2018-07-24T10:53:35.374Z,38.45
2018-07-24T10:56:03.511Z,38.42
2018-07-24T10:58:31.865Z,39.03
2018-07-24T11:00:59.993Z,37.44
2018-07-24T11:03:28.130Z,37.17
2018-07-24T11:05:56.294Z,37.41
2018-07-24T11:08:24.448Z,38.62
2018-07-24T11:10:52.621Z,39.12
2018-07-24T11:13:20.743Z,38.11
2018-07-24T11:15:48.928Z,37.32
2018-07-24T11:18:17.093Z,36.09
2018-07-24T11:20:45.220Z,37.51
2018-07-24T11:23:13.852Z,36.95
2018-07-24T11:25:41.859Z,37.12
2018-07-24T11:28:09.986Z,35.69
2018-07-24T11:30:38.111Z,36.16
2018-07-24T11:33:06.304Z,36.93
2018-07-24T11:35:34.401Z,37.10
2018-07-24T11:38:02.532Z,35.35
2018-07-24T11:40:30.664Z,36.48
2018-07-24T11:42:58.804Z,35.82
2018-07-24T11:45:26.959Z,35.01
2018-07-24T11:47:55.064Z,35.22
2018-07-24T11:50:23.174Z,34.63
2018-07-24T11:52:51.312Z,35.27
2018-07-24T11:55:19.439Z,35.65
2018-07-24T11:57:47.695Z,35.15
2018-07-24T12:00:15.729Z,34.50
2018-07-24T12:02:43.914Z,35.30
2018-07-24T12:05:12.067Z,35.90
2018-07-24T12:07:40.234Z,35.00
2018-07-24T12:10:08.349Z,35.46
2018-07-24T12:12:36.521Z,34.90
2018-07-24T12:15:05.474Z,34.94
2018-07-24T12:17:33.597Z,33.87
2018-07-24T12:20:01.748Z,33.42
2018-07-24T12:22:29.875Z,34.69
2018-07-24T12:24:58.150Z,35.03
2018-07-24T12:27:26.286Z,34.65
2018-07-24T12:29:54.433Z,35.42
2018-07-24T12:32:22.616Z,36.48
2018-07-24T12:34:50.779Z,35.51
2018-07-24T12:37:18.932Z,33.98
2018-07-24T12:39:47.096Z,33.75
2018-07-24T12:42:15.298Z,34.45
2018-07-24T12:44:43.470Z,34.18
2018-07-24T12:47:11.645Z,34.63
2018-07-24T12:49:39.757Z,35.21
2018-07-24T12:52:07.916Z,34.62
2018-07-24T12:54:36.100Z,35.33
2018-07-24T12:57:04.240Z,34.85
2018-07-24T12:59:32.368Z,33.75
2018-07-24T13:02:00.500Z,33.96
2018-07-24T13:04:28.624Z,33.67
2018-07-24T13:06:56.773Z,33.75
2018-07-24T13:09:24.939Z,33.63
2018-07-24T13:11:53.142Z,33.98
2018-07-24T13:14:21.405Z,33.97
2018-07-24T13:16:49.577Z,34.04
2018-07-24T13:19:17.779Z,33.03
2018-07-24T13:21:45.938Z,33.54
2018-07-24T13:24:14.131Z,33.81
2018-07-24T13:26:42.244Z,34.17
2018-07-24T13:29:10.392Z,34.20
2018-07-24T13:31:38.537Z,33.87
2018-07-24T13:34:06.626Z,34.61
2018-07-24T13:36:34.805Z,35.47
2018-07-24T13:39:02.989Z,34.28
2018-07-24T13:41:31.153Z,34.29
2018-07-24T13:43:59.249Z,34.56
2018-07-24T13:46:27.394Z,34.93
2018-07-24T13:48:55.567Z,34.86
2018-07-24T13:51:23.717Z,34.89
2018-07-24T13:53:51.878Z,35.40
2018-07-24T13:56:20.028Z,34.33
2018-07-24T13:58:48.211Z,33.35
2018-07-24T14:01:16.295Z,33.74
2018-07-24T14:03:44.614Z,33.70
2018-07-24T14:06:12.799Z,34.06
2018-07-24T14:08:40.923Z,33.39
2018-07-24T14:11:09.033Z,33.79
2018-07-24T14:13:37.176Z,34.82
2018-07-24T14:16:05.279Z,35.41
2018-07-24T14:18:33.380Z,34.60
2018-07-24T14:21:01.525Z,33.94
2018-07-24T14:23:29.656Z,34.30
2018-07-24T14:25:57.761Z,34.97
2018-07-24T14:28:25.847Z,34.59
2018-07-24T14:30:53.976Z,34.25
2018-07-24T14:50:06.713Z,33.32
2018-07-24T14:52:34.900Z,33.69
2018-07-24T14:55:03.054Z,34.50
2018-07-24T14:57:31.183Z,34.26
2018-07-24T14:59:59.612Z,33.90
2018-07-24T15:02:27.723Z,32.43
2018-07-24T15:04:55.839Z,33.86
2018-07-24T15:07:23.920Z,33.86
2018-07-24T15:09:52.040Z,33.01
2018-07-24T15:12:20.163Z,33.06
2018-07-24T15:14:48.295Z,32.67
2018-07-24T15:17:16.424Z,31.24
2018-07-24T15:19:44.572Z,32.59
2018-07-24T15:22:13.629Z,32.02
2018-07-24T15:24:41.756Z,32.49
2018-07-24T15:27:09.832Z,33.04
2018-07-24T15:29:37.963Z,34.27
2018-07-24T15:32:06.114Z,34.04
2018-07-24T15:34:34.367Z,32.21
2018-07-24T15:37:02.517Z,32.51
2018-07-24T15:39:30.557Z,33.97
2018-07-24T15:41:58.756Z,32.80
2018-07-24T15:44:28.380Z,32.68
2018-07-24T15:46:56.652Z,33.43
2018-07-24T15:49:24.695Z,34.47
2018-07-24T15:51:52.840Z,34.48
2018-07-24T15:54:20.945Z,34.72
2018-07-24T15:56:49.026Z,35.55
2018-07-24T15:59:17.157Z,34.97
2018-07-24T16:01:45.276Z,35.10
2018-07-24T16:04:13.402Z,35.95
2018-07-24T16:06:41.533Z,36.00
2018-07-24T16:09:11.864Z,35.66
2018-07-24T16:11:40.021Z,34.94
2018-07-24T16:14:08.199Z,34.75
2018-07-24T16:16:36.346Z,34.75
2018-07-24T16:19:04.568Z,34.65
2018-07-24T16:21:32.790Z,35.23
2018-07-24T16:24:00.904Z,35.45
2018-07-24T16:26:29.018Z,36.02
2018-07-24T16:28:57.139Z,34.84
2018-07-24T16:31:25.272Z,36.78
2018-07-24T16:33:53.384Z,35.70
2018-07-24T16:36:21.566Z,36.90
2018-07-24T16:38:49.691Z,37.51
2018-07-24T16:41:17.792Z,38.20
2018-07-24T16:43:45.927Z,38.02
2018-07-24T16:46:14.069Z,38.68
2018-07-24T16:48:42.328Z,38.73
2018-07-24T16:51:10.573Z,38.77
2018-07-24T16:53:38.652Z,38.69
2018-07-24T16:56:07.083Z,37.47
2018-07-24T16:58:35.212Z,36.49
2018-07-24T17:01:03.361Z,37.51
2018-07-24T17:03:31.487Z,38.25
2018-07-24T17:05:59.756Z,37.19
2018-07-24T17:08:27.969Z,38.10
2018-07-24T17:10:56.124Z,36.45
2018-07-24T17:13:24.328Z,38.38
2018-07-24T17:15:52.489Z,38.75
2018-07-24T17:18:20.671Z,39.25
2018-07-24T17:20:48.872Z,37.85
2018-07-24T17:23:17.020Z,39.71
2018-07-24T17:25:45.137Z,38.06
2018-07-24T17:28:13.272Z,39.63
2018-07-24T17:30:41.368Z,40.30
2018-07-24T17:33:10.120Z,40.86
2018-07-24T17:35:38.215Z,41.55
2018-07-24T17:38:06.379Z,42.55
2018-07-24T17:40:34.603Z,42.47
2018-07-24T17:43:02.643Z,43.47
2018-07-24T17:45:30.749Z,44.02
2018-07-24T17:47:58.891Z,44.18
2018-07-24T17:50:27.020Z,45.22
2018-07-24T17:52:55.106Z,46.12
2018-07-24T17:55:23.256Z,46.17
2018-07-24T17:57:51.385Z,46.53
2018-07-24T18:00:19.528Z,46.11
2018-07-24T18:02:47.680Z,46.96
2018-07-24T18:05:15.773Z,47.25
2018-07-24T18:07:43.860Z,46.71
2018-07-24T18:10:11.996Z,47.22
2018-07-24T18:12:40.123Z,47.58
2018-07-24T18:15:08.249Z,47.52
2018-07-24T18:17:36.402Z,48.07
2018-07-24T18:20:05.034Z,47.38
2018-07-24T18:22:33.168Z,48.24
2018-07-24T18:25:01.386Z,48.79
2018-07-24T18:27:29.534Z,48.03
2018-07-24T18:29:57.620Z,48.30
2018-07-24T18:32:26.067Z,48.47
2018-07-24T18:34:54.167Z,49.01
2018-07-24T18:37:22.266Z,49.05
2018-07-24T18:39:50.356Z,49.90
2018-07-24T18:42:18.488Z,49.52
2018-07-24T18:44:46.601Z,49.67
2018-07-24T18:47:14.671Z,50.17
2018-07-24T18:49:42.795Z,50.77
2018-07-24T18:52:10.942Z,49.64
2018-07-24T18:54:39.073Z,49.71
2018-07-24T18:57:07.218Z,50.66
2018-07-24T18:59:35.370Z,50.50
2018-07-24T19:02:03.515Z,50.25
2018-07-24T19:04:31.623Z,50.12
2018-07-24T19:06:59.731Z,50.59
2018-07-24T19:09:27.860Z,51.05
2018-07-24T19:11:56.086Z,51.14
2018-07-24T19:14:24.254Z,51.12
2018-07-24T19:16:52.367Z,51.16
2018-07-24T19:19:20.480Z,50.71
2018-07-24T19:21:48.613Z,51.05
2018-07-24T19:24:16.732Z,51.49
2018-07-24T19:26:44.884Z,51.40
2018-07-24T19:29:12.983Z,51.48
2018-07-24T19:31:41.082Z,52.23
2018-07-24T19:34:09.140Z,52.55
2018-07-24T19:36:37.268Z,52.50
2018-07-24T19:39:08.716Z,52.80
2018-07-24T19:41:36.873Z,53.47
2018-07-24T19:44:06.181Z,53.78
2018-07-24T19:46:34.332Z,53.70
2018-07-24T19:49:02.473Z,53.92
2018-07-24T19:51:30.625Z,54.94
2018-07-24T19:53:58.756Z,54.95
2018-07-24T19:56:26.866Z,55.28
2018-07-24T19:58:54.985Z,55.47
2018-07-24T20:01:23.074Z,55.75
2018-07-24T20:03:51.563Z,56.61
2018-07-24T20:06:19.751Z,56.21
2018-07-24T20:08:47.927Z,56.94
2018-07-24T20:11:16.187Z,57.58
2018-07-24T20:13:44.351Z,57.35
2018-07-24T20:16:12.482Z,58.41
2018-07-24T20:18:40.628Z,57.82
2018-07-24T20:21:08.889Z,58.05
2018-07-24T20:23:37.066Z,58.50
2018-07-24T20:26:05.259Z,59.55
2018-07-24T20:28:33.471Z,60.00
2018-07-24T20:31:01.717Z,59.31
2018-07-24T20:33:29.826Z,59.33
2018-07-24T20:35:57.921Z,59.88
2018-07-24T20:38:26.012Z,60.23
2018-07-24T20:40:54.094Z,59.85
2018-07-24T20:43:22.235Z,60.67
2018-07-24T20:45:50.354Z,60.94
2018-07-24T20:48:18.453Z,61.83
2018-07-24T20:50:46.637Z,62.75
2018-07-24T20:53:14.793Z,62.59
2018-07-24T20:55:42.968Z,62.03
2018-07-24T20:58:11.040Z,61.11
2018-07-24T21:00:39.164Z,60.47
2018-07-24T21:03:07.909Z,60.46
2018-07-24T21:05:36.017Z,61.45
2018-07-24T21:08:04.114Z,61.36
2018-07-24T21:10:32.271Z,61.88
2018-07-24T21:13:00.498Z,62.26
2018-07-24T21:15:28.588Z,62.70
2018-07-24T21:17:56.709Z,62.65
2018-07-24T21:20:24.801Z,61.98
2018-07-24T21:22:52.959Z,61.77
2018-07-24T21:25:21.052Z,62.48
2018-07-24T21:27:49.167Z,63.03
2018-07-24T21:30:17.298Z,62.59
2018-07-24T21:32:45.462Z,63.20
2018-07-24T21:35:13.614Z,63.12
2018-07-24T21:37:41.752Z,64.04
2018-07-24T21:40:09.880Z,64.54
2018-07-24T21:42:38.112Z,63.78
2018-07-24T21:45:06.112Z,63.84
2018-07-24T21:47:34.232Z,63.85
2018-07-24T21:50:02.367Z,63.47
2018-07-24T21:52:30.482Z,64.63
2018-07-24T21:54:58.590Z,64.39
2018-07-24T21:57:26.705Z,65.35
2018-07-24T21:59:54.806Z,64.87
2018-07-24T22:02:22.911Z,66.06
2018-07-24T22:04:51.024Z,65.86
2018-07-24T22:07:19.120Z,66.33
2018-07-24T22:09:47.228Z,67.02
2018-07-24T22:12:15.420Z,67.18
2018-07-24T22:14:43.498Z,66.44
2018-07-24T22:17:11.587Z,66.03
2018-07-24T22:19:39.764Z,66.39
2018-07-24T22:22:07.831Z,66.38
2018-07-24T22:24:35.943Z,66.31
2018-07-24T22:27:04.070Z,66.17
2018-07-24T22:29:32.219Z,66.27
2018-07-24T22:32:00.311Z,67.06
2018-07-24T22:34:28.504Z,67.15
2018-07-24T22:36:56.639Z,66.63
2018-07-24T22:39:24.779Z,66.99
2018-07-24T22:41:52.931Z,66.95
2018-07-24T22:44:21.162Z,67.16
2018-07-24T22:46:49.270Z,67.21
2018-07-24T22:49:17.380Z,67.64
2018-07-24T22:51:45.497Z,67.00
2018-07-24T22:54:13.620Z,67.20
2018-07-24T22:56:41.758Z,67.35
2018-07-24T22:59:09.914Z,67.34
2018-07-24T23:01:38.016Z,67.48
2018-07-24T23:04:06.261Z,67.36
2018-07-24T23:06:34.436Z,68.04
2018-07-24T23:09:02.612Z,67.85
2018-07-24T23:11:30.752Z,69.46
2018-07-24T23:13:58.903Z,68.77
2018-07-24T23:16:26.981Z,69.17
2018-07-24T23:18:55.106Z,70.27
2018-07-24T23:21:23.221Z,70.64
2018-07-24T23:23:51.334Z,70.72
2018-07-24T23:26:19.440Z,70.60
2018-07-24T23:28:47.496Z,70.45
2018-07-24T23:31:15.676Z,70.42
2018-07-24T23:33:43.934Z,70.58
2018-07-24T23:36:12.081Z,70.16
2018-07-24T23:38:40.233Z,70.37
2018-07-24T23:41:08.449Z,70.53
2018-07-24T23:43:36.639Z,70.83
2018-07-24T23:46:04.810Z,70.51
2018-07-24T23:48:32.964Z,70.95
2018-07-24T23:51:01.158Z,71.79
2018-07-24T23:53:29.323Z,72.02
2018-07-24T23:55:57.508Z,71.87
2018-07-24T23:58:25.692Z,71.43
